createdAt,value
2023-02-22T00:00:40.134Z,73.59
2023-02-22T00:01:07.770Z,73.42
2023-02-22T00:01:37.387Z,73.64
2023-02-22T00:02:12.683Z,73.75
2023-02-22T00:02:36.973Z,73.57
2023-02-22T00:02:59.294Z,73.58
2023-02-22T00:03:24.226Z,73.63
2023-02-22T00:03:50.057Z,73.65
2023-02-22T00:04:12.661Z,73.77
2023-02-22T00:04:34.985Z,73.69
2023-02-22T00:04:57.292Z,73.81
2023-02-22T00:05:24.253Z,73.69
2023-02-22T00:05:50.946Z,73.73
2023-02-22T00:06:16.138Z,73.81
2023-02-22T00:06:37.815Z,73.84
2023-02-22T00:07:00.728Z,73.90
2023-02-22T00:07:23.197Z,73.87
2023-02-22T00:07:48.059Z,73.97
2023-02-22T00:08:11.138Z,73.96
2023-02-22T00:08:34.510Z,74.01
2023-02-22T00:08:56.784Z,73.99
2023-02-22T00:09:20.838Z,73.95
2023-02-22T00:09:42.601Z,73.87
2023-02-22T00:10:08.576Z,73.83
2023-02-22T00:10:31.082Z,73.93
2023-02-22T00:10:52.758Z,73.93
2023-02-22T00:11:14.806Z,73.97
2023-02-22T00:11:38.066Z,73.98
2023-02-22T00:12:00.068Z,73.85
2023-02-22T00:12:21.784Z,73.95
2023-02-22T00:12:43.340Z,74.01
2023-02-22T00:13:07.149Z,74.00
2023-02-22T00:13:33.448Z,74.01
2023-02-22T00:13:56.581Z,74.11
2023-02-22T00:14:20.991Z,73.99
2023-02-22T00:14:42.624Z,74.07
2023-02-22T00:15:05.176Z,74.04
2023-02-22T00:15:27.579Z,74.13
2023-02-22T00:15:49.665Z,74.21
2023-02-22T00:16:15.886Z,74.25
2023-02-22T00:16:38.229Z,74.25
2023-02-22T00:17:00.090Z,74.33
2023-02-22T00:17:21.919Z,74.29
2023-02-22T00:17:44.239Z,74.22
2023-02-22T00:18:06.534Z,74.38
2023-02-22T00:18:28.393Z,74.39
2023-02-22T00:18:55.194Z,74.37
2023-02-22T00:19:21.471Z,74.40
2023-02-22T00:19:43.001Z,74.27
2023-02-22T00:20:06.586Z,74.43
2023-02-22T00:20:28.358Z,74.40
2023-02-22T00:20:50.043Z,74.52
2023-02-22T00:21:12.018Z,74.42
2023-02-22T00:21:34.690Z,74.53
2023-02-22T00:21:57.477Z,74.40
2023-02-22T00:22:20.079Z,74.48
2023-02-22T00:22:42.293Z,74.50
2023-02-22T00:23:06.521Z,74.52
2023-02-22T00:23:29.021Z,74.46
2023-02-22T00:23:54.032Z,74.39
2023-02-22T00:24:24.547Z,74.45
2023-02-22T00:24:49.671Z,74.41
2023-02-22T00:25:12.070Z,74.46
2023-02-22T00:25:33.699Z,74.49
2023-02-22T00:25:56.457Z,74.39
2023-02-22T00:26:18.975Z,74.45
2023-02-22T00:26:41.283Z,74.38
2023-02-22T00:27:03.037Z,74.43
2023-02-22T00:27:24.867Z,74.41
2023-02-22T00:27:53.098Z,74.51
2023-02-22T00:28:14.968Z,74.57
2023-02-22T00:28:37.140Z,74.66
2023-02-22T00:28:59.118Z,74.57
2023-02-22T00:29:22.747Z,74.61
2023-02-22T00:29:45.761Z,74.70
2023-02-22T00:30:08.804Z,74.68
2023-02-22T00:30:31.736Z,74.70
2023-02-22T00:30:59.228Z,75.02
2023-02-22T00:31:21.066Z,74.92
2023-02-22T00:31:45.581Z,74.75
2023-02-22T00:32:07.590Z,74.70
2023-02-22T00:32:30.637Z,74.84
2023-02-22T00:32:52.757Z,74.76
2023-02-22T00:33:14.605Z,74.65
2023-02-22T00:33:37.918Z,74.75
2023-02-22T00:34:00.042Z,74.79
2023-02-22T00:34:23.636Z,74.80
2023-02-22T00:34:45.627Z,74.76
2023-02-22T00:35:08.354Z,74.88
2023-02-22T00:35:30.488Z,74.76
2023-02-22T00:35:57.315Z,74.80
2023-02-22T00:36:20.660Z,74.79
2023-02-22T00:36:48.886Z,74.85
2023-02-22T00:37:10.857Z,74.73
2023-02-22T00:37:35.545Z,74.83
2023-02-22T00:37:58.107Z,74.93
2023-02-22T00:38:19.697Z,74.87
2023-02-22T00:38:41.843Z,74.89
2023-02-22T00:39:03.624Z,74.97
2023-02-22T00:39:25.418Z,74.96
2023-02-22T00:39:48.847Z,74.97
2023-02-22T00:40:10.811Z,75.09
2023-02-22T00:40:33.662Z,74.98
2023-02-22T00:41:00.155Z,75.09
2023-02-22T00:41:21.780Z,75.19
2023-02-22T00:41:45.705Z,75.37
2023-02-22T00:42:08.911Z,75.26
2023-02-22T00:42:30.801Z,75.29
2023-02-22T00:42:52.434Z,75.33
2023-02-22T00:43:14.185Z,75.32
2023-02-22T00:43:37.577Z,75.29
2023-02-22T00:43:59.265Z,75.39
2023-02-22T00:44:21.548Z,75.42
2023-02-22T00:44:43.726Z,75.45
2023-02-22T00:45:07.555Z,75.35
2023-02-22T00:45:31.951Z,75.31
2023-02-22T00:45:53.809Z,75.35
2023-02-22T00:46:16.172Z,75.42
2023-02-22T00:46:39.602Z,75.60
2023-02-22T00:47:01.287Z,75.37
2023-02-22T00:47:23.274Z,75.40
2023-02-22T00:47:45.265Z,75.40
2023-02-22T00:48:10.112Z,75.51
2023-02-22T00:48:32.239Z,75.38
2023-02-22T00:48:54.405Z,75.41
2023-02-22T00:49:16.391Z,75.49
2023-02-22T00:49:38.480Z,75.45
2023-02-22T00:50:00.390Z,75.51
2023-02-22T00:50:22.971Z,75.62
2023-02-22T00:50:45.170Z,75.57
2023-02-22T00:51:06.784Z,75.70
2023-02-22T00:51:28.673Z,75.67
2023-02-22T00:51:54.299Z,75.64
2023-02-22T00:52:19.153Z,75.83
2023-02-22T00:52:41.043Z,75.80
2023-02-22T00:53:06.926Z,75.75
2023-02-22T00:53:28.817Z,75.84
2023-02-22T00:53:51.305Z,75.87
2023-02-22T00:54:13.839Z,75.96
2023-02-22T00:54:36.231Z,75.97
2023-02-22T00:54:59.419Z,76.11
2023-02-22T00:55:24.781Z,75.90
2023-02-22T00:55:46.567Z,75.89
2023-02-22T00:56:08.255Z,75.94
2023-02-22T00:56:30.076Z,76.10
2023-02-22T00:56:52.029Z,75.95
2023-02-22T00:57:13.650Z,75.96
2023-02-22T00:57:35.305Z,76.12
2023-02-22T00:57:58.192Z,75.96
2023-02-22T00:58:19.875Z,76.00
2023-02-22T00:58:41.662Z,75.93
2023-02-22T00:59:03.651Z,76.16
2023-02-22T00:59:27.813Z,76.00
2023-02-22T00:59:51.617Z,76.17
2023-02-22T01:00:15.585Z,75.99
2023-02-22T01:00:39.074Z,76.03
2023-02-22T01:01:02.427Z,76.05
2023-02-22T01:01:24.874Z,76.05
2023-02-22T01:01:46.999Z,75.93
2023-02-22T01:02:09.940Z,75.90
2023-02-22T01:02:32.058Z,76.02
2023-02-22T01:02:55.405Z,76.09
2023-02-22T01:03:18.311Z,76.06
2023-02-22T01:03:40.812Z,76.23
2023-02-22T01:04:02.760Z,76.08
2023-02-22T01:04:26.224Z,76.14
2023-02-22T01:04:49.104Z,76.16
2023-02-22T01:05:15.771Z,76.22
2023-02-22T01:05:37.712Z,76.19
2023-02-22T01:05:59.500Z,76.26
2023-02-22T01:06:22.305Z,76.29
2023-02-22T01:06:46.236Z,76.29
2023-02-22T01:07:09.558Z,76.40
2023-02-22T01:07:31.953Z,76.51
2023-02-22T01:07:55.215Z,76.47
2023-02-22T01:08:17.290Z,76.56
2023-02-22T01:08:38.942Z,76.56
2023-02-22T01:09:01.749Z,76.68
2023-02-22T01:09:23.464Z,76.51
2023-02-22T01:09:45.420Z,76.65
2023-02-22T01:10:11.938Z,76.64
2023-02-22T01:10:35.840Z,76.53
2023-02-22T01:11:01.205Z,76.64
2023-02-22T01:11:23.271Z,76.64
2023-02-22T01:11:44.980Z,76.70
2023-02-22T01:12:07.685Z,76.75
2023-02-22T01:12:29.571Z,76.67
2023-02-22T01:12:51.870Z,76.64
2023-02-22T01:13:13.956Z,76.63
2023-02-22T01:13:37.717Z,76.76
2023-02-22T01:13:59.988Z,76.81
2023-02-22T01:14:23.241Z,76.83
2023-02-22T01:14:44.713Z,76.83
2023-02-22T01:15:09.780Z,76.86
2023-02-22T01:15:31.518Z,76.77
2023-02-22T01:15:56.168Z,77.00
2023-02-22T01:16:17.868Z,76.96
2023-02-22T01:16:43.882Z,76.91
2023-02-22T01:17:05.929Z,76.94
2023-02-22T01:17:30.463Z,77.03
2023-02-22T01:17:54.700Z,77.14
2023-02-22T01:18:16.690Z,77.09
2023-02-22T01:18:38.526Z,77.17
2023-02-22T01:19:00.870Z,77.34
2023-02-22T01:19:23.577Z,77.32
2023-02-22T01:19:45.265Z,77.35
2023-02-22T01:20:12.188Z,77.42
2023-02-22T01:20:34.565Z,77.54
2023-02-22T01:20:56.176Z,77.42
2023-02-22T01:21:18.086Z,77.58
2023-02-22T01:21:40.365Z,77.66
2023-02-22T01:22:04.808Z,77.79
2023-02-22T01:22:27.519Z,78.02
2023-02-22T01:22:49.590Z,78.23
2023-02-22T01:23:11.882Z,78.29
2023-02-22T01:23:33.538Z,78.20
2023-02-22T01:23:55.529Z,78.35
2023-02-22T01:24:17.820Z,78.47
2023-02-22T01:24:39.709Z,78.58
2023-02-22T01:25:01.501Z,78.51
2023-02-22T01:25:24.811Z,78.58
2023-02-22T01:25:46.481Z,78.75
2023-02-22T01:26:09.811Z,78.88
2023-02-22T01:26:32.119Z,78.87
2023-02-22T01:26:54.198Z,79.01
2023-02-22T01:27:16.913Z,79.06
2023-02-22T01:27:38.756Z,79.02
2023-02-22T01:28:00.885Z,79.07
2023-02-22T01:28:22.571Z,79.19
2023-02-22T01:28:45.269Z,79.21
2023-02-22T01:29:08.206Z,79.24
2023-02-22T01:29:30.066Z,79.33
2023-02-22T01:29:52.158Z,79.34
2023-02-22T01:30:13.971Z,79.58
2023-02-22T01:30:36.037Z,79.53
2023-02-22T01:30:58.502Z,79.59
2023-02-22T01:31:20.706Z,79.62
2023-02-22T01:31:45.937Z,79.66
2023-02-22T01:32:08.160Z,79.77
2023-02-22T01:32:30.176Z,79.79
2023-02-22T01:32:52.463Z,79.92
2023-02-22T01:33:15.080Z,79.93
2023-02-22T01:33:36.751Z,79.99
2023-02-22T01:33:58.589Z,79.88
2023-02-22T01:34:23.195Z,80.02
2023-02-22T01:34:45.932Z,80.07
2023-02-22T01:35:08.899Z,80.19
2023-02-22T01:35:31.712Z,80.15
2023-02-22T01:35:53.595Z,80.24
2023-02-22T01:36:16.507Z,80.28
2023-02-22T01:36:39.516Z,80.32
2023-02-22T01:37:01.301Z,80.41
2023-02-22T01:37:23.389Z,80.51
2023-02-22T01:37:45.277Z,80.63
2023-02-22T01:38:08.016Z,80.35
2023-02-22T01:38:29.931Z,80.53
2023-02-22T01:38:51.652Z,80.56
2023-02-22T01:39:13.181Z,80.57
2023-02-22T01:39:35.977Z,80.67
2023-02-22T01:39:58.133Z,80.80
2023-02-22T01:40:21.555Z,80.79
2023-02-22T01:40:43.951Z,80.68
2023-02-22T01:41:06.860Z,80.67
2023-02-22T01:41:28.746Z,80.85
2023-02-22T01:41:53.088Z,80.76
2023-02-22T01:42:16.171Z,80.74
2023-02-22T01:42:38.190Z,80.91
2023-02-22T01:43:00.906Z,80.83
2023-02-22T01:43:23.637Z,80.82
2023-02-22T01:43:45.389Z,80.82
2023-02-22T01:44:28.901Z,80.74
2023-02-22T01:45:13.028Z,80.80
2023-02-22T01:45:53.871Z,80.91
2023-02-22T01:46:20.524Z,80.88
2023-02-22T01:46:42.316Z,80.91
2023-02-22T01:47:04.609Z,80.98
2023-02-22T01:47:27.315Z,80.99
2023-02-22T01:47:48.978Z,81.06
2023-02-22T01:48:29.205Z,80.77
2023-02-22T01:48:59.776Z,81.04
2023-02-22T01:49:21.788Z,81.16
2023-02-22T01:49:47.535Z,81.13
2023-02-22T01:50:10.149Z,81.21
2023-02-22T01:50:33.390Z,81.10
2023-02-22T01:50:57.247Z,81.23
2023-02-22T01:51:20.198Z,81.21
2023-02-22T01:51:43.846Z,81.27
2023-02-22T01:52:08.264Z,81.29
2023-02-22T01:52:30.560Z,81.39
2023-02-22T01:52:52.753Z,81.25
2023-02-22T01:53:15.358Z,81.27
2023-02-22T01:53:40.105Z,81.26
2023-02-22T01:54:03.526Z,81.28
2023-02-22T01:54:27.665Z,81.44
2023-02-22T01:54:52.234Z,81.33
2023-02-22T01:55:13.892Z,81.45
2023-02-22T01:55:39.070Z,81.47
2023-02-22T01:56:01.380Z,81.47
2023-02-22T01:56:24.078Z,81.57
2023-02-22T01:56:50.146Z,81.63
2023-02-22T01:57:14.371Z,81.57
2023-02-22T01:57:36.773Z,81.61
2023-02-22T01:57:58.410Z,81.70
2023-02-22T01:58:22.513Z,81.81
2023-02-22T01:58:46.089Z,81.79
2023-02-22T01:59:09.023Z,81.93
2023-02-22T01:59:32.672Z,82.00
2023-02-22T01:59:55.565Z,82.10
2023-02-22T02:00:20.002Z,81.94
2023-02-22T02:00:41.596Z,82.13
2023-02-22T02:01:03.570Z,82.19
2023-02-22T02:01:25.456Z,82.16
2023-02-22T02:01:47.241Z,82.15
2023-02-22T02:02:09.024Z,82.14
2023-02-22T02:02:30.707Z,82.15
2023-02-22T02:03:02.319Z,82.12
2023-02-22T02:03:27.162Z,82.06
2023-02-22T02:03:49.994Z,82.00
2023-02-22T02:04:15.802Z,81.91
2023-02-22T02:04:43.200Z,81.98
2023-02-22T02:05:07.873Z,81.90
2023-02-22T02:05:34.701Z,81.94
2023-02-22T02:06:02.416Z,81.84
2023-02-22T02:06:24.484Z,81.82
2023-02-22T02:06:48.088Z,81.83
2023-02-22T02:07:11.143Z,81.86
2023-02-22T02:07:33.769Z,81.89
2023-02-22T02:07:55.429Z,81.96
2023-02-22T02:08:26.624Z,82.11
2023-02-22T02:08:54.643Z,81.94
2023-02-22T02:09:20.804Z,82.22
2023-02-22T02:09:49.038Z,82.24
2023-02-22T02:10:13.805Z,82.27
2023-02-22T02:10:35.694Z,82.17
2023-02-22T02:10:57.517Z,82.29
2023-02-22T02:11:21.002Z,82.41
2023-02-22T02:11:43.402Z,82.50
2023-02-22T02:12:09.306Z,82.54
2023-02-22T02:12:32.594Z,82.65
2023-02-22T02:12:55.093Z,82.68
2023-02-22T02:13:17.185Z,82.83
2023-02-22T02:13:38.964Z,82.80
2023-02-22T02:14:00.658Z,82.78
2023-02-22T02:14:23.777Z,82.72
2023-02-22T02:14:45.398Z,82.93
2023-02-22T02:15:24.723Z,82.92
2023-02-22T02:15:49.270Z,82.90
2023-02-22T02:16:10.849Z,82.88
2023-02-22T02:16:42.363Z,82.84
2023-02-22T02:17:06.544Z,82.79
2023-02-22T02:17:28.332Z,82.85
2023-02-22T02:17:50.857Z,82.84
2023-02-22T02:18:16.033Z,82.80
2023-02-22T02:18:37.923Z,82.67
2023-02-22T02:19:01.444Z,82.73
2023-02-22T02:19:30.531Z,82.79
2023-02-22T02:20:13.465Z,82.77
2023-02-22T02:20:36.695Z,82.74
2023-02-22T02:21:16.356Z,82.75
2023-02-22T02:21:59.011Z,82.71
2023-02-22T02:22:32.446Z,82.74
2023-02-22T02:22:56.788Z,82.82
2023-02-22T02:23:36.561Z,82.72
2023-02-22T02:24:05.075Z,82.67
2023-02-22T02:24:32.641Z,82.69
2023-02-22T02:25:10.345Z,82.74
2023-02-22T02:25:50.740Z,82.76
2023-02-22T02:26:12.736Z,82.80
2023-02-22T02:26:45.052Z,82.69
2023-02-22T02:27:17.575Z,82.70
2023-02-22T02:27:39.361Z,82.68
2023-02-22T02:28:05.031Z,82.64
2023-02-22T02:28:42.238Z,82.70
2023-02-22T02:29:12.866Z,82.68
2023-02-22T02:29:54.529Z,82.49
2023-02-22T02:30:45.405Z,82.51
2023-02-22T02:31:27.406Z,82.35
2023-02-22T02:31:54.328Z,82.13
2023-02-22T02:32:21.742Z,82.27
2023-02-22T02:32:46.482Z,82.16
2023-02-22T02:33:20.348Z,82.20
2023-02-22T02:33:42.844Z,82.07
2023-02-22T02:34:14.658Z,82.14
2023-02-22T02:34:36.649Z,82.11
2023-02-22T02:35:03.639Z,82.11
2023-02-22T02:35:25.529Z,82.13
2023-02-22T02:35:53.143Z,82.21
2023-02-22T02:36:23.314Z,82.17
2023-02-22T02:36:51.343Z,82.01
2023-02-22T02:37:21.612Z,82.25
2023-02-22T02:37:49.345Z,82.12
2023-02-22T02:38:29.556Z,82.37
2023-02-22T02:38:55.557Z,82.33
2023-02-22T02:39:19.838Z,82.44
2023-02-22T02:39:50.213Z,82.31
2023-02-22T02:40:11.841Z,82.33
2023-02-22T02:40:36.643Z,82.42
2023-02-22T02:41:07.126Z,82.55
2023-02-22T02:41:30.449Z,82.53
2023-02-22T02:41:52.340Z,82.65
2023-02-22T02:42:16.775Z,82.60
2023-02-22T02:42:58.297Z,82.69
2023-02-22T02:43:22.535Z,82.66
2023-02-22T02:43:54.951Z,82.75
2023-02-22T02:44:22.061Z,82.76
2023-02-22T02:44:45.786Z,82.70
2023-02-22T02:45:09.514Z,82.75
2023-02-22T02:45:39.587Z,82.80
2023-02-22T02:46:01.266Z,82.99
2023-02-22T02:46:29.081Z,82.93
2023-02-22T02:46:51.638Z,82.92
2023-02-22T02:47:19.319Z,82.95
2023-02-22T02:47:44.769Z,82.99
2023-02-22T02:48:06.659Z,83.08
2023-02-22T02:48:28.959Z,83.06
2023-02-22T02:49:00.904Z,83.21
2023-02-22T02:49:25.715Z,83.17
2023-02-22T02:49:56.497Z,83.15
2023-02-22T02:50:19.714Z,82.99
2023-02-22T02:50:46.543Z,83.23
2023-02-22T02:51:10.049Z,83.23
2023-02-22T02:51:33.555Z,83.39
2023-02-22T02:51:55.389Z,83.42
2023-02-22T02:52:17.948Z,83.36
2023-02-22T02:52:42.489Z,83.42
2023-02-22T02:53:05.322Z,83.41
2023-02-22T02:53:30.800Z,83.57
2023-02-22T02:53:52.857Z,83.62
2023-02-22T02:54:14.876Z,83.45
2023-02-22T02:54:36.525Z,83.55
2023-02-22T02:54:58.209Z,83.58
2023-02-22T02:55:20.104Z,83.67
2023-02-22T02:55:42.087Z,83.75
2023-02-22T02:56:04.076Z,83.71
2023-02-22T02:56:25.860Z,83.78
2023-02-22T02:56:47.645Z,83.88
2023-02-22T02:57:09.436Z,83.80
2023-02-22T02:57:31.454Z,83.93
2023-02-22T02:57:55.250Z,83.89
2023-02-22T02:58:18.187Z,83.87
2023-02-22T02:58:48.558Z,83.88
2023-02-22T02:59:29.190Z,83.92
2023-02-22T02:59:51.442Z,83.97
2023-02-22T03:00:23.489Z,83.85
2023-02-22T03:00:45.434Z,83.98
2023-02-22T03:01:07.420Z,83.93
2023-02-22T03:01:35.011Z,84.03
2023-02-22T03:02:10.973Z,84.07
2023-02-22T03:02:45.335Z,83.95
2023-02-22T03:03:26.041Z,84.20
2023-02-22T03:03:55.568Z,84.29
2023-02-22T03:04:19.831Z,84.39
2023-02-22T03:04:53.648Z,84.43
2023-02-22T03:05:26.991Z,84.48
2023-02-22T03:06:08.003Z,84.53
2023-02-22T03:06:35.726Z,84.68
2023-02-22T03:07:13.065Z,84.63
2023-02-22T03:07:37.839Z,84.62
2023-02-22T03:08:25.973Z,84.73
2023-02-22T03:08:51.038Z,84.70
2023-02-22T03:09:15.702Z,84.64
2023-02-22T03:09:37.467Z,84.51
2023-02-22T03:10:12.646Z,84.68
2023-02-22T03:10:38.169Z,84.69
2023-02-22T03:11:14.501Z,84.67
2023-02-22T03:11:40.831Z,84.66
2023-02-22T03:12:07.529Z,84.69
2023-02-22T03:12:41.248Z,84.74
2023-02-22T03:13:21.676Z,84.69
2023-02-22T03:13:51.543Z,84.91
2023-02-22T03:14:20.812Z,84.95
2023-02-22T03:14:45.614Z,84.87
2023-02-22T03:15:12.314Z,85.09
2023-02-22T03:15:46.243Z,84.99
2023-02-22T03:16:08.716Z,85.15
2023-02-22T03:16:33.157Z,85.27
2023-02-22T03:17:01.060Z,85.29
2023-02-22T03:17:26.186Z,85.35
2023-02-22T03:17:48.311Z,85.27
2023-02-22T03:18:33.485Z,85.47
2023-02-22T03:19:04.121Z,85.45
2023-02-22T03:19:28.851Z,85.50
2023-02-22T03:19:52.269Z,85.58
2023-02-22T03:20:38.567Z,85.68
2023-02-22T03:21:03.826Z,85.68
2023-02-22T03:21:33.701Z,85.66
2023-02-22T03:22:01.814Z,85.72
2023-02-22T03:22:47.637Z,85.68
2023-02-22T03:23:20.668Z,85.62
2023-02-22T03:23:47.468Z,85.59
2023-02-22T03:24:11.092Z,85.72
2023-02-22T03:24:36.457Z,85.77
2023-02-22T03:25:06.558Z,85.69
2023-02-22T03:25:39.280Z,85.85
2023-02-22T03:26:03.185Z,85.80
2023-02-22T03:26:28.789Z,85.67
2023-02-22T03:27:02.403Z,85.84
2023-02-22T03:27:27.566Z,85.97
2023-02-22T03:27:53.845Z,86.05
2023-02-22T03:28:16.562Z,86.04
2023-02-22T03:28:40.512Z,85.93
2023-02-22T03:29:04.620Z,86.08
2023-02-22T03:29:27.939Z,86.15
2023-02-22T03:29:52.520Z,86.12
2023-02-22T03:30:24.834Z,86.12
2023-02-22T03:30:55.443Z,86.20
2023-02-22T03:31:28.335Z,86.22
2023-02-22T03:31:51.725Z,86.28
2023-02-22T03:32:20.153Z,86.20
2023-02-22T03:32:43.284Z,86.40
2023-02-22T03:33:08.549Z,86.36
2023-02-22T03:33:35.789Z,86.42
2023-02-22T03:33:59.111Z,86.37
2023-02-22T03:34:23.334Z,86.42
2023-02-22T03:34:50.134Z,86.36
2023-02-22T03:35:16.851Z,86.37
2023-02-22T03:35:40.762Z,86.41
2023-02-22T03:36:25.634Z,86.32
2023-02-22T03:36:51.402Z,86.33
2023-02-22T03:37:17.109Z,86.33
2023-02-22T03:37:40.188Z,86.31
2023-02-22T03:38:02.863Z,86.37
2023-02-22T03:38:26.415Z,86.46
2023-02-22T03:38:48.583Z,86.29
2023-02-22T03:39:11.755Z,86.50
2023-02-22T03:39:34.221Z,86.44
2023-02-22T03:39:59.693Z,86.47
2023-02-22T03:40:33.186Z,86.44
2023-02-22T03:40:58.648Z,86.50
2023-02-22T03:41:23.479Z,86.56
2023-02-22T03:41:48.003Z,86.55
2023-02-22T03:42:14.615Z,86.53
2023-02-22T03:42:37.089Z,86.55
2023-02-22T03:43:06.043Z,86.62
2023-02-22T03:43:29.454Z,86.61
2023-02-22T03:43:57.093Z,86.65
2023-02-22T03:44:21.613Z,86.58
2023-02-22T03:44:43.171Z,86.58
2023-02-22T03:45:05.593Z,86.42
2023-02-22T03:45:27.991Z,86.48
2023-02-22T03:45:50.396Z,86.39
2023-02-22T03:46:13.330Z,86.40
2023-02-22T03:46:35.437Z,86.37
2023-02-22T03:46:57.489Z,86.31
2023-02-22T03:47:22.541Z,86.25
2023-02-22T03:47:49.844Z,86.21
2023-02-22T03:48:31.023Z,86.22
2023-02-22T03:48:59.540Z,86.24
2023-02-22T03:49:26.004Z,86.41
2023-02-22T03:49:59.226Z,86.19
2023-02-22T03:50:22.334Z,86.16
2023-02-22T03:50:44.434Z,86.15
2023-02-22T03:51:06.832Z,86.13
2023-02-22T03:51:28.746Z,86.12
2023-02-22T03:51:52.786Z,86.24
2023-02-22T03:52:14.881Z,86.29
2023-02-22T03:52:37.552Z,86.24
2023-02-22T03:53:00.560Z,86.28
2023-02-22T03:53:23.683Z,86.27
2023-02-22T03:53:45.579Z,86.29
2023-02-22T03:54:07.523Z,86.24
2023-02-22T03:54:31.810Z,86.37
2023-02-22T03:54:53.498Z,86.38
2023-02-22T03:55:17.201Z,86.36
2023-02-22T03:55:42.456Z,86.46
2023-02-22T03:56:06.735Z,86.42
2023-02-22T03:56:35.139Z,86.39
2023-02-22T03:57:17.258Z,86.41
2023-02-22T03:57:42.629Z,86.39
2023-02-22T03:58:06.051Z,86.27
2023-02-22T03:58:30.188Z,86.26
2023-02-22T03:58:51.875Z,86.19
2023-02-22T03:59:14.090Z,86.19
2023-02-22T03:59:36.604Z,86.12
2023-02-22T03:59:58.177Z,86.08
2023-02-22T04:00:22.394Z,85.91
2023-02-22T04:00:44.907Z,85.82
2023-02-22T04:01:06.666Z,85.87
2023-02-22T04:01:28.595Z,85.72
2023-02-22T04:01:51.875Z,85.74
2023-02-22T04:02:13.761Z,85.72
2023-02-22T04:02:35.542Z,85.64
2023-02-22T04:02:58.105Z,85.71
2023-02-22T04:03:20.097Z,85.55
2023-02-22T04:03:42.740Z,85.55
2023-02-22T04:04:04.733Z,85.51
2023-02-22T04:04:27.779Z,85.55
2023-02-22T04:04:50.369Z,85.47
2023-02-22T04:05:13.657Z,85.46
2023-02-22T04:05:35.459Z,85.53
2023-02-22T04:05:58.466Z,85.50
2023-02-22T04:06:20.141Z,85.53
2023-02-22T04:06:47.343Z,85.55
2023-02-22T04:07:11.387Z,85.51
2023-02-22T04:07:34.388Z,85.52
2023-02-22T04:07:56.197Z,85.66
2023-02-22T04:08:17.861Z,85.57
2023-02-22T04:08:39.657Z,85.64
2023-02-22T04:09:01.527Z,85.83
2023-02-22T04:09:23.924Z,85.58
2023-02-22T04:09:46.157Z,85.64
2023-02-22T04:10:08.529Z,85.65
2023-02-22T04:10:33.060Z,85.61
2023-02-22T04:10:54.843Z,85.63
2023-02-22T04:11:19.221Z,85.42
2023-02-22T04:11:40.874Z,85.59
2023-02-22T04:12:03.675Z,85.44
2023-02-22T04:12:29.527Z,85.51
2023-02-22T04:12:55.977Z,85.29
2023-02-22T04:13:22.532Z,85.30
2023-02-22T04:13:45.440Z,85.26
2023-02-22T04:14:08.147Z,85.18
2023-02-22T04:14:30.443Z,84.99
2023-02-22T04:14:53.252Z,85.04
2023-02-22T04:15:15.670Z,85.04
2023-02-22T04:15:38.530Z,84.99
2023-02-22T04:16:03.484Z,84.94
2023-02-22T04:16:25.809Z,84.90
2023-02-22T04:16:48.102Z,84.78
2023-02-22T04:17:09.885Z,84.95
2023-02-22T04:17:31.771Z,84.81
2023-02-22T04:17:55.201Z,84.92
2023-02-22T04:18:17.508Z,84.87
2023-02-22T04:18:40.807Z,84.76
2023-02-22T04:19:02.810Z,84.80
2023-02-22T04:19:25.450Z,84.93
2023-02-22T04:19:47.595Z,84.73
2023-02-22T04:20:11.220Z,84.93
2023-02-22T04:20:39.762Z,84.78
2023-02-22T04:21:08.695Z,84.91
2023-02-22T04:21:35.401Z,85.07
2023-02-22T04:21:58.204Z,85.00
2023-02-22T04:22:21.015Z,85.03
2023-02-22T04:22:42.901Z,85.16
2023-02-22T04:23:04.983Z,85.11
2023-02-22T04:23:26.709Z,84.96
2023-02-22T04:23:49.170Z,84.97
2023-02-22T04:24:15.245Z,85.07
2023-02-22T04:24:38.470Z,85.15
2023-02-22T04:25:00.660Z,85.06
2023-02-22T04:25:23.084Z,85.07
2023-02-22T04:25:46.171Z,85.05
2023-02-22T04:26:10.409Z,85.07
2023-02-22T04:26:32.820Z,84.89
2023-02-22T04:26:56.030Z,85.07
2023-02-22T04:27:18.931Z,84.99
2023-02-22T04:27:41.253Z,84.98
2023-02-22T04:28:04.340Z,84.99
2023-02-22T04:28:37.506Z,84.92
2023-02-22T04:29:09.285Z,85.06
2023-02-22T04:29:34.035Z,85.06
2023-02-22T04:29:58.289Z,85.03
2023-02-22T04:30:20.376Z,84.98
2023-02-22T04:30:45.322Z,85.04
2023-02-22T04:31:10.215Z,85.07
2023-02-22T04:31:33.216Z,85.07
2023-02-22T04:31:55.207Z,85.03
2023-02-22T04:32:16.968Z,85.11
2023-02-22T04:32:38.953Z,85.17
2023-02-22T04:33:00.806Z,85.09
2023-02-22T04:33:22.447Z,85.05
2023-02-22T04:33:44.200Z,85.03
2023-02-22T04:34:09.180Z,85.18
2023-02-22T04:34:33.703Z,85.19
2023-02-22T04:34:55.382Z,85.23
2023-02-22T04:35:17.788Z,85.34
2023-02-22T04:35:39.463Z,85.29
2023-02-22T04:36:01.250Z,85.37
2023-02-22T04:36:27.030Z,85.35
2023-02-22T04:36:48.805Z,85.30
2023-02-22T04:37:11.820Z,85.26
2023-02-22T04:37:34.138Z,85.31
2023-02-22T04:37:58.168Z,85.34
2023-02-22T04:38:19.954Z,85.18
2023-02-22T04:38:42.840Z,85.28
2023-02-22T04:39:05.042Z,85.17
2023-02-22T04:39:27.774Z,85.19
2023-02-22T04:39:49.470Z,85.22
2023-02-22T04:40:12.230Z,84.94
2023-02-22T04:40:34.631Z,85.04
2023-02-22T04:40:57.650Z,84.98
2023-02-22T04:41:20.048Z,85.00
2023-02-22T04:41:42.026Z,84.90
2023-02-22T04:42:04.526Z,84.95
2023-02-22T04:42:27.175Z,84.81
2023-02-22T04:42:49.935Z,84.84
2023-02-22T04:43:11.930Z,84.86
2023-02-22T04:43:34.424Z,84.74
2023-02-22T04:44:03.775Z,84.78
2023-02-22T04:44:26.993Z,84.81
2023-02-22T04:44:48.886Z,84.76
2023-02-22T04:45:11.002Z,84.75
2023-02-22T04:45:33.577Z,84.81
2023-02-22T04:45:56.489Z,84.80
2023-02-22T04:46:20.569Z,84.75
2023-02-22T04:46:42.478Z,84.85
2023-02-22T04:47:06.647Z,84.66
2023-02-22T04:47:28.637Z,84.73
2023-02-22T04:47:51.481Z,84.79
2023-02-22T04:48:13.227Z,84.78
2023-02-22T04:48:35.725Z,84.77
2023-02-22T04:48:58.124Z,84.74
2023-02-22T04:49:23.303Z,84.77
2023-02-22T04:49:46.908Z,84.55
2023-02-22T04:50:09.104Z,84.64
2023-02-22T04:50:30.992Z,84.63
2023-02-22T04:50:52.773Z,84.53
2023-02-22T04:51:14.983Z,84.44
2023-02-22T04:51:47.903Z,84.28
2023-02-22T04:52:10.914Z,84.30
2023-02-22T04:52:33.821Z,84.29
2023-02-22T04:52:55.911Z,84.16
2023-02-22T04:53:18.004Z,84.13
2023-02-22T04:53:39.820Z,84.04
2023-02-22T04:54:02.394Z,83.96
2023-02-22T04:54:28.367Z,83.94
2023-02-22T04:54:50.357Z,83.91
2023-02-22T04:55:13.499Z,83.94
2023-02-22T04:55:35.183Z,83.75
2023-02-22T04:55:56.796Z,83.76
2023-02-22T04:56:18.619Z,83.75
2023-02-22T04:56:40.600Z,83.71
2023-02-22T04:57:07.202Z,83.86
2023-02-22T04:57:29.189Z,83.85
2023-02-22T04:57:50.876Z,83.71
2023-02-22T04:58:12.555Z,83.72
2023-02-22T04:58:35.872Z,83.68
2023-02-22T04:58:57.761Z,83.83
2023-02-22T04:59:19.550Z,83.69
2023-02-22T04:59:47.400Z,83.68
2023-02-22T05:00:10.888Z,83.74
2023-02-22T05:00:33.315Z,83.71
2023-02-22T05:00:57.337Z,83.76
2023-02-22T05:01:19.613Z,83.74
2023-02-22T05:01:41.852Z,83.70
2023-02-22T05:02:03.703Z,83.66
2023-02-22T05:02:28.218Z,83.72
2023-02-22T05:02:50.206Z,83.68
2023-02-22T05:03:11.911Z,83.57
2023-02-22T05:03:33.903Z,83.61
2023-02-22T05:03:56.132Z,83.57
2023-02-22T05:04:18.184Z,83.50
2023-02-22T05:04:41.747Z,83.45
2023-02-22T05:05:04.002Z,83.32
2023-02-22T05:05:26.093Z,83.36
2023-02-22T05:05:47.879Z,83.32
2023-02-22T05:06:11.743Z,83.18
2023-02-22T05:06:33.569Z,83.33
2023-02-22T05:06:55.218Z,83.33
2023-02-22T05:07:17.087Z,83.11
2023-02-22T05:07:40.998Z,83.16
2023-02-22T05:08:09.106Z,83.10
2023-02-22T05:08:31.725Z,83.12
2023-02-22T05:08:54.635Z,83.16
2023-02-22T05:09:16.934Z,83.13
2023-02-22T05:09:38.921Z,83.05
2023-02-22T05:10:02.440Z,83.12
2023-02-22T05:10:24.430Z,83.07
2023-02-22T05:10:46.525Z,83.15
2023-02-22T05:11:09.241Z,83.00
2023-02-22T05:11:31.092Z,82.95
2023-02-22T05:11:53.346Z,83.00
2023-02-22T05:12:15.704Z,82.93
2023-02-22T05:12:37.455Z,83.04
2023-02-22T05:12:59.174Z,82.97
2023-02-22T05:13:20.873Z,82.97
2023-02-22T05:13:43.193Z,82.88
2023-02-22T05:14:04.838Z,82.95
2023-02-22T05:14:29.094Z,82.95
2023-02-22T05:14:56.289Z,82.88
2023-02-22T05:15:19.971Z,82.96
2023-02-22T05:15:42.064Z,82.90
2023-02-22T05:16:04.748Z,82.92